sensor_id;sensor_type;location;lat;lon;timestamp;P1;durP1;ratioP1;P2;durP2;ratioP2
54805;SDS011;62866;55.776;37.496;2022-09-09T00:04:42;3.17;;;1.23;;
54805;SDS011;62866;55.776;37.496;2022-09-09T00:13:03;1.02;;;0.80;;
54805;SDS011;62866;55.776;37.496;2022-09-09T00:21:16;1.98;;;1.02;;
54805;SDS011;62866;55.776;37.496;2022-09-09T00:23:55;2.15;;;1.00;;
54805;SDS011;62866;55.776;37.496;2022-09-09T00:29:32;2.15;;;1.00;;
54805;SDS011;62866;55.776;37.496;2022-09-09T00:32:04;1.40;;;1.00;;
54805;SDS011;62866;55.776;37.496;2022-09-09T00:34:37;1.80;;;1.10;;
54805;SDS011;62866;55.776;37.496;2022-09-09T00:37:08;1.75;;;0.90;;
54805;SDS011;62866;55.776;37.496;2022-09-09T00:39:36;1.65;;;1.02;;
54805;SDS011;62866;55.776;37.496;2022-09-09T00:52:53;1.60;;;0.80;;
54805;SDS011;62866;55.776;37.496;2022-09-09T00:55:45;1.00;;;0.80;;
54805;SDS011;62866;55.776;37.496;2022-09-09T00:58:19;1.30;;;0.93;;
54805;SDS011;62866;55.776;37.496;2022-09-09T01:00:46;1.77;;;1.05;;
54805;SDS011;62866;55.776;37.496;2022-09-09T01:06:14;2.13;;;0.90;;
54805;SDS011;62866;55.776;37.496;2022-09-09T01:11:07;1.20;;;0.93;;
54805;SDS011;62866;55.776;37.496;2022-09-09T01:13:41;2.55;;;1.10;;
54805;SDS011;62866;55.776;37.496;2022-09-09T01:16:08;1.98;;;1.10;;
54805;SDS011;62866;55.776;37.496;2022-09-09T01:18:48;1.27;;;1.02;;
54805;SDS011;62866;55.776;37.496;2022-09-09T01:26:42;3.20;;;1.13;;
54805;SDS011;62866;55.776;37.496;2022-09-09T01:29:10;1.65;;;1.23;;
54805;SDS011;62866;55.776;37.496;2022-09-09T01:31:42;1.70;;;1.25;;
54805;SDS011;62866;55.776;37.496;2022-09-09T01:34:17;2.80;;;1.27;;
54805;SDS011;62866;55.776;37.496;2022-09-09T01:36:57;1.77;;;1.17;;
54805;SDS011;62866;55.776;37.496;2022-09-09T01:39:27;1.58;;;1.02;;
54805;SDS011;62866;55.776;37.496;2022-09-09T01:41:53;1.50;;;1.05;;
54805;SDS011;62866;55.776;37.496;2022-09-09T01:44:20;1.70;;;1.23;;
54805;SDS011;62866;55.776;37.496;2022-09-09T01:46:46;2.45;;;1.17;;
54805;SDS011;62866;55.776;37.496;2022-09-09T01:49:12;2.28;;;1.27;;
54805;SDS011;62866;55.776;37.496;2022-09-09T01:51:38;1.38;;;0.93;;
54805;SDS011;62866;55.776;37.496;2022-09-09T01:54:05;3.00;;;1.30;;
54805;SDS011;62866;55.776;37.496;2022-09-09T01:59:23;1.65;;;1.20;;
54805;SDS011;62866;55.776;37.496;2022-09-09T02:02:13;3.22;;;1.17;;
54805;SDS011;62866;55.776;37.496;2022-09-09T02:07:26;3.80;;;1.38;;
54805;SDS011;62866;55.776;37.496;2022-09-09T02:10:12;2.00;;;1.25;;
54805;SDS011;62866;55.776;37.496;2022-09-09T02:12:40;1.20;;;1.00;;
54805;SDS011;62866;55.776;37.496;2022-09-09T02:15:14;1.70;;;0.95;;
54805;SDS011;62866;55.776;37.496;2022-09-09T02:20:12;1.88;;;1.15;;
54805;SDS011;62866;55.776;37.496;2022-09-09T02:22:39;1.88;;;1.10;;
54805;SDS011;62866;55.776;37.496;2022-09-09T02:25:10;3.05;;;1.00;;
54805;SDS011;62866;55.776;37.496;2022-09-09T02:27:40;5.00;;;1.50;;
54805;SDS011;62866;55.776;37.496;2022-09-09T02:30:08;2.22;;;1.27;;
54805;SDS011;62866;55.776;37.496;2022-09-09T02:32:35;3.33;;;1.30;;
54805;SDS011;62866;55.776;37.496;2022-09-09T02:35:08;5.70;;;1.30;;
54805;SDS011;62866;55.776;37.496;2022-09-09T02:37:37;3.58;;;1.20;;
54805;SDS011;62866;55.776;37.496;2022-09-09T02:40:04;4.00;;;1.00;;
54805;SDS011;62866;55.776;37.496;2022-09-09T02:42:31;2.00;;;1.30;;
54805;SDS011;62866;55.776;37.496;2022-09-09T02:44:57;1.75;;;0.90;;
54805;SDS011;62866;55.776;37.496;2022-09-09T02:47:35;1.90;;;1.10;;
54805;SDS011;62866;55.776;37.496;2022-09-09T02:50:17;1.92;;;1.00;;
54805;SDS011;62866;55.776;37.496;2022-09-09T02:52:54;1.70;;;1.13;;
54805;SDS011;62866;55.776;37.496;2022-09-09T02:58:12;2.70;;;1.15;;
54805;SDS011;62866;55.776;37.496;2022-09-09T03:00:42;2.15;;;1.17;;
54805;SDS011;62866;55.776;37.496;2022-09-09T03:03:09;3.10;;;1.40;;
54805;SDS011;62866;55.776;37.496;2022-09-09T03:05:35;1.75;;;1.10;;
54805;SDS011;62866;55.776;37.496;2022-09-09T03:08:01;1.88;;;1.45;;
54805;SDS011;62866;55.776;37.496;2022-09-09T03:10:28;1.42;;;1.20;;
54805;SDS011;62866;55.776;37.496;2022-09-09T03:12:53;1.77;;;1.20;;
54805;SDS011;62866;55.776;37.496;2022-09-09T03:15:20;2.00;;;1.05;;
54805;SDS011;62866;55.776;37.496;2022-09-09T03:17:46;1.40;;;1.00;;
54805;SDS011;62866;55.776;37.496;2022-09-09T03:20:12;1.67;;;1.00;;
54805;SDS011;62866;55.776;37.496;2022-09-09T03:22:38;1.60;;;1.30;;
54805;SDS011;62866;55.776;37.496;2022-09-09T03:25:03;3.63;;;1.40;;
54805;SDS011;62866;55.776;37.496;2022-09-09T03:27:30;3.20;;;1.35;;
54805;SDS011;62866;55.776;37.496;2022-09-09T03:29:56;2.45;;;1.50;;
54805;SDS011;62866;55.776;37.496;2022-09-09T03:32:22;2.63;;;1.40;;
54805;SDS011;62866;55.776;37.496;2022-09-09T03:34:48;2.13;;;1.27;;
54805;SDS011;62866;55.776;37.496;2022-09-09T03:37:17;2.55;;;1.40;;
54805;SDS011;62866;55.776;37.496;2022-09-09T03:39:43;5.15;;;1.30;;
54805;SDS011;62866;55.776;37.496;2022-09-09T03:42:09;2.67;;;1.40;;
54805;SDS011;62866;55.776;37.496;2022-09-09T03:44:39;2.47;;;1.40;;
54805;SDS011;62866;55.776;37.496;2022-09-09T03:47:07;3.17;;;1.20;;
54805;SDS011;62866;55.776;37.496;2022-09-09T03:49:32;2.88;;;1.15;;
54805;SDS011;62866;55.776;37.496;2022-09-09T03:51:58;1.90;;;1.23;;
54805;SDS011;62866;55.776;37.496;2022-09-09T03:54:24;4.45;;;1.25;;
54805;SDS011;62866;55.776;37.496;2022-09-09T03:56:50;1.88;;;1.25;;
54805;SDS011;62866;55.776;37.496;2022-09-09T03:59:16;1.85;;;1.15;;
54805;SDS011;62866;55.776;37.496;2022-09-09T04:01:41;3.83;;;1.23;;
54805;SDS011;62866;55.776;37.496;2022-09-09T04:04:07;4.07;;;1.25;;
54805;SDS011;62866;55.776;37.496;2022-09-09T04:06:34;3.97;;;1.40;;
54805;SDS011;62866;55.776;37.496;2022-09-09T04:09:00;1.48;;;1.02;;
54805;SDS011;62866;55.776;37.496;2022-09-09T04:11:27;3.47;;;1.25;;
54805;SDS011;62866;55.776;37.496;2022-09-09T04:13:53;2.58;;;1.38;;
54805;SDS011;62866;55.776;37.496;2022-09-09T04:16:19;2.63;;;1.30;;
54805;SDS011;62866;55.776;37.496;2022-09-09T04:18:45;2.70;;;1.10;;
54805;SDS011;62866;55.776;37.496;2022-09-09T04:21:11;1.88;;;1.15;;
54805;SDS011;62866;55.776;37.496;2022-09-09T04:23:37;2.05;;;1.25;;
54805;SDS011;62866;55.776;37.496;2022-09-09T04:26:03;3.03;;;1.30;;
54805;SDS011;62866;55.776;37.496;2022-09-09T04:28:30;1.42;;;1.15;;
54805;SDS011;62866;55.776;37.496;2022-09-09T04:30:56;2.10;;;1.30;;
54805;SDS011;62866;55.776;37.496;2022-09-09T04:33:28;3.88;;;1.10;;
54805;SDS011;62866;55.776;37.496;2022-09-09T04:35:53;3.30;;;1.38;;
54805;SDS011;62866;55.776;37.496;2022-09-09T04:38:19;1.80;;;1.10;;
54805;SDS011;62866;55.776;37.496;2022-09-09T04:40:48;2.00;;;1.30;;
54805;SDS011;62866;55.776;37.496;2022-09-09T04:43:16;1.45;;;0.90;;
54805;SDS011;62866;55.776;37.496;2022-09-09T04:45:43;2.65;;;1.40;;
54805;SDS011;62866;55.776;37.496;2022-09-09T04:48:11;2.75;;;1.23;;
54805;SDS011;62866;55.776;37.496;2022-09-09T04:50:37;1.67;;;1.17;;
54805;SDS011;62866;55.776;37.496;2022-09-09T04:53:03;1.83;;;0.80;;
54805;SDS011;62866;55.776;37.496;2022-09-09T04:55:30;3.00;;;1.30;;
54805;SDS011;62866;55.776;37.496;2022-09-09T04:57:56;1.42;;;1.00;;
54805;SDS011;62866;55.776;37.496;2022-09-09T05:00:22;3.05;;;1.20;;
54805;SDS011;62866;55.776;37.496;2022-09-09T05:02:49;2.20;;;1.17;;
54805;SDS011;62866;55.776;37.496;2022-09-09T05:05:14;2.55;;;1.50;;
54805;SDS011;62866;55.776;37.496;2022-09-09T05:07:40;3.22;;;1.23;;
54805;SDS011;62866;55.776;37.496;2022-09-09T05:10:06;2.60;;;1.23;;
54805;SDS011;62866;55.776;37.496;2022-09-09T05:12:32;5.93;;;2.75;;
54805;SDS011;62866;55.776;37.496;2022-09-09T05:14:58;3.72;;;1.48;;
54805;SDS011;62866;55.776;37.496;2022-09-09T05:17:23;2.20;;;1.20;;
54805;SDS011;62866;55.776;37.496;2022-09-09T05:19:49;1.67;;;1.10;;
54805;SDS011;62866;55.776;37.496;2022-09-09T05:22:20;2.60;;;1.67;;
54805;SDS011;62866;55.776;37.496;2022-09-09T05:24:48;3.10;;;1.42;;
54805;SDS011;62866;55.776;37.496;2022-09-09T05:27:16;4.75;;;1.70;;
54805;SDS011;62866;55.776;37.496;2022-09-09T05:29:44;1.52;;;1.15;;
54805;SDS011;62866;55.776;37.496;2022-09-09T05:32:10;2.17;;;1.10;;
54805;SDS011;62866;55.776;37.496;2022-09-09T05:34:35;2.60;;;1.17;;
54805;SDS011;62866;55.776;37.496;2022-09-09T05:37:02;3.65;;;1.13;;
54805;SDS011;62866;55.776;37.496;2022-09-09T05:39:29;2.78;;;1.10;;
54805;SDS011;62866;55.776;37.496;2022-09-09T05:41:55;1.52;;;1.38;;
54805;SDS011;62866;55.776;37.496;2022-09-09T05:44:20;3.17;;;1.40;;
54805;SDS011;62866;55.776;37.496;2022-09-09T05:46:48;1.98;;;1.60;;
54805;SDS011;62866;55.776;37.496;2022-09-09T05:49:14;3.20;;;1.10;;
54805;SDS011;62866;55.776;37.496;2022-09-09T05:51:40;3.17;;;1.00;;
54805;SDS011;62866;55.776;37.496;2022-09-09T05:54:08;3.45;;;1.45;;
54805;SDS011;62866;55.776;37.496;2022-09-09T05:56:33;2.35;;;1.10;;
54805;SDS011;62866;55.776;37.496;2022-09-09T05:58:59;4.13;;;1.13;;
54805;SDS011;62866;55.776;37.496;2022-09-09T06:01:30;2.30;;;1.23;;
54805;SDS011;62866;55.776;37.496;2022-09-09T06:03:58;1.83;;;1.13;;
54805;SDS011;62866;55.776;37.496;2022-09-09T06:06:25;1.73;;;1.05;;
54805;SDS011;62866;55.776;37.496;2022-09-09T06:08:53;2.50;;;0.80;;
54805;SDS011;62866;55.776;37.496;2022-09-09T06:11:23;1.40;;;1.00;;
54805;SDS011;62866;55.776;37.496;2022-09-09T06:13:50;1.25;;;0.85;;
54805;SDS011;62866;55.776;37.496;2022-09-09T06:16:23;1.15;;;0.95;;
54805;SDS011;62866;55.776;37.496;2022-09-09T06:18:52;1.25;;;0.90;;
54805;SDS011;62866;55.776;37.496;2022-09-09T06:21:20;0.98;;;0.68;;
54805;SDS011;62866;55.776;37.496;2022-09-09T06:23:47;1.92;;;1.13;;
54805;SDS011;62866;55.776;37.496;2022-09-09T06:26:20;2.83;;;1.08;;
54805;SDS011;62866;55.776;37.496;2022-09-09T06:31:16;1.38;;;0.77;;
54805;SDS011;62866;55.776;37.496;2022-09-09T06:33:42;0.90;;;0.80;;
54805;SDS011;62866;55.776;37.496;2022-09-09T06:36:13;1.23;;;0.70;;
54805;SDS011;62866;55.776;37.496;2022-09-09T06:38:40;1.00;;;0.75;;
54805;SDS011;62866;55.776;37.496;2022-09-09T06:41:07;0.75;;;0.73;;
54805;SDS011;62866;55.776;37.496;2022-09-09T06:43:34;3.90;;;3.60;;
54805;SDS011;62866;55.776;37.496;2022-09-09T06:46:10;0.55;;;0.55;;
54805;SDS011;62866;55.776;37.496;2022-09-09T06:48:40;2.05;;;1.13;;
54805;SDS011;62866;55.776;37.496;2022-09-09T06:51:13;0.73;;;0.50;;
54805;SDS011;62866;55.776;37.496;2022-09-09T06:53:41;0.80;;;0.80;;
54805;SDS011;62866;55.776;37.496;2022-09-09T06:58:39;3.15;;;0.60;;
54805;SDS011;62866;55.776;37.496;2022-09-09T07:01:12;1.75;;;0.40;;
54805;SDS011;62866;55.776;37.496;2022-09-09T07:03:40;0.60;;;0.60;;
54805;SDS011;62866;55.776;37.496;2022-09-09T07:06:08;0.70;;;0.70;;
54805;SDS011;62866;55.776;37.496;2022-09-09T07:08:38;0.52;;;0.50;;
54805;SDS011;62866;55.776;37.496;2022-09-09T07:11:04;0.73;;;0.63;;
54805;SDS011;62866;55.776;37.496;2022-09-09T07:13:31;1.00;;;0.50;;
54805;SDS011;62866;55.776;37.496;2022-09-09T07:16:08;0.50;;;0.40;;
54805;SDS011;62866;55.776;37.496;2022-09-09T07:18:36;0.50;;;0.40;;
54805;SDS011;62866;55.776;37.496;2022-09-09T07:21:02;1.40;;;0.60;;
54805;SDS011;62866;55.776;37.496;2022-09-09T07:23:28;0.88;;;0.52;;
54805;SDS011;62866;55.776;37.496;2022-09-09T07:25:55;1.05;;;0.45;;
54805;SDS011;62866;55.776;37.496;2022-09-09T07:28:21;0.57;;;0.50;;
54805;SDS011;62866;55.776;37.496;2022-09-09T07:30:54;0.65;;;0.50;;
54805;SDS011;62866;55.776;37.496;2022-09-09T07:33:24;2.00;;;0.93;;
54805;SDS011;62866;55.776;37.496;2022-09-09T07:35:51;1.65;;;0.55;;
54805;SDS011;62866;55.776;37.496;2022-09-09T07:38:18;0.80;;;0.47;;
54805;SDS011;62866;55.776;37.496;2022-09-09T07:40:44;1.17;;;0.60;;
54805;SDS011;62866;55.776;37.496;2022-09-09T07:43:10;1.17;;;0.70;;
54805;SDS011;62866;55.776;37.496;2022-09-09T07:45:36;2.22;;;0.60;;
54805;SDS011;62866;55.776;37.496;2022-09-09T07:48:02;0.47;;;0.30;;
54805;SDS011;62866;55.776;37.496;2022-09-09T07:50:28;0.40;;;0.40;;
54805;SDS011;62866;55.776;37.496;2022-09-09T07:52:54;1.20;;;0.55;;
54805;SDS011;62866;55.776;37.496;2022-09-09T07:55:20;1.67;;;0.70;;
54805;SDS011;62866;55.776;37.496;2022-09-09T07:57:46;5.18;;;2.63;;
54805;SDS011;62866;55.776;37.496;2022-09-09T08:00:12;1.90;;;0.70;;
54805;SDS011;62866;55.776;37.496;2022-09-09T08:02:40;0.85;;;0.55;;
54805;SDS011;62866;55.776;37.496;2022-09-09T08:05:06;1.40;;;0.50;;
54805;SDS011;62866;55.776;37.496;2022-09-09T08:07:31;0.60;;;0.55;;
54805;SDS011;62866;55.776;37.496;2022-09-09T08:09:57;0.60;;;0.60;;
54805;SDS011;62866;55.776;37.496;2022-09-09T08:12:23;4.75;;;0.93;;
54805;SDS011;62866;55.776;37.496;2022-09-09T08:14:48;0.75;;;0.60;;
54805;SDS011;62866;55.776;37.496;2022-09-09T08:17:14;0.98;;;0.60;;
54805;SDS011;62866;55.776;37.496;2022-09-09T08:19:39;0.63;;;0.40;;
54805;SDS011;62866;55.776;37.496;2022-09-09T08:22:05;0.90;;;0.57;;
54805;SDS011;62866;55.776;37.496;2022-09-09T08:24:32;0.70;;;0.40;;
54805;SDS011;62866;55.776;37.496;2022-09-09T08:26:58;0.90;;;0.40;;
54805;SDS011;62866;55.776;37.496;2022-09-09T08:29:24;0.90;;;0.40;;
54805;SDS011;62866;55.776;37.496;2022-09-09T08:31:53;1.42;;;0.57;;
54805;SDS011;62866;55.776;37.496;2022-09-09T08:34:22;0.52;;;0.50;;
54805;SDS011;62866;55.776;37.496;2022-09-09T08:36:49;1.70;;;0.50;;
54805;SDS011;62866;55.776;37.496;2022-09-09T08:39:17;0.50;;;0.50;;
54805;SDS011;62866;55.776;37.496;2022-09-09T08:58:21;1.83;;;0.80;;
54805;SDS011;62866;55.776;37.496;2022-09-09T09:01:05;0.30;;;0.30;;
54805;SDS011;62866;55.776;37.496;2022-09-09T09:09:08;0.47;;;0.40;;
54805;SDS011;62866;55.776;37.496;2022-09-09T09:11:51;2.22;;;0.60;;
54805;SDS011;62866;55.776;37.496;2022-09-09T09:14:20;1.75;;;0.70;;
54805;SDS011;62866;55.776;37.496;2022-09-09T09:16:53;2.00;;;0.65;;
54805;SDS011;62866;55.776;37.496;2022-09-09T09:19:22;0.93;;;0.50;;
54805;SDS011;62866;55.776;37.496;2022-09-09T09:24:58;1.27;;;0.50;;
54805;SDS011;62866;55.776;37.496;2022-09-09T09:32:56;0.55;;;0.50;;
54805;SDS011;62866;55.776;37.496;2022-09-09T09:35:26;4.35;;;0.70;;
54805;SDS011;62866;55.776;37.496;2022-09-09T09:37:52;0.88;;;0.35;;
54805;SDS011;62866;55.776;37.496;2022-09-09T09:40:18;0.73;;;0.40;;
54805;SDS011;62866;55.776;37.496;2022-09-09T09:45:28;0.35;;;0.30;;
54805;SDS011;62866;55.776;37.496;2022-09-09T09:47:57;0.52;;;0.40;;
54805;SDS011;62866;55.776;37.496;2022-09-09T09:50:24;0.45;;;0.43;;
54805;SDS011;62866;55.776;37.496;2022-09-09T09:52:56;0.60;;;0.50;;
54805;SDS011;62866;55.776;37.496;2022-09-09T09:55:25;0.65;;;0.40;;
54805;SDS011;62866;55.776;37.496;2022-09-09T09:57:51;0.30;;;0.30;;
54805;SDS011;62866;55.776;37.496;2022-09-09T10:00:21;0.52;;;0.50;;
54805;SDS011;62866;55.776;37.496;2022-09-09T10:02:48;1.42;;;0.65;;
54805;SDS011;62866;55.776;37.496;2022-09-09T10:05:21;1.05;;;0.50;;
54805;SDS011;62866;55.776;37.496;2022-09-09T10:08:08;0.80;;;0.57;;
54805;SDS011;62866;55.776;37.496;2022-09-09T10:18:58;1.92;;;0.50;;
54805;SDS011;62866;55.776;37.496;2022-09-09T10:21:39;0.70;;;0.43;;
54805;SDS011;62866;55.776;37.496;2022-09-09T10:24:22;0.82;;;0.63;;
54805;SDS011;62866;55.776;37.496;2022-09-09T10:32:36;0.50;;;0.50;;
54805;SDS011;62866;55.776;37.496;2022-09-09T10:46:15;1.25;;;0.60;;
54805;SDS011;62866;55.776;37.496;2022-09-09T10:51:36;0.63;;;0.60;;
54805;SDS011;62866;55.776;37.496;2022-09-09T10:57:04;0.65;;;0.65;;
54805;SDS011;62866;55.776;37.496;2022-09-09T10:59:38;0.90;;;0.52;;
54805;SDS011;62866;55.776;37.496;2022-09-09T11:02:18;1.08;;;0.63;;
54805;SDS011;62866;55.776;37.496;2022-09-09T11:04:53;1.65;;;0.40;;
54805;SDS011;62866;55.776;37.496;2022-09-09T11:07:33;2.65;;;1.40;;
54805;SDS011;62866;55.776;37.496;2022-09-09T11:10:06;1.15;;;0.65;;
54805;SDS011;62866;55.776;37.496;2022-09-09T11:12:41;0.80;;;0.50;;
54805;SDS011;62866;55.776;37.496;2022-09-09T11:15:28;1.63;;;0.50;;
54805;SDS011;62866;55.776;37.496;2022-09-09T11:18:06;0.40;;;0.40;;
54805;SDS011;62866;55.776;37.496;2022-09-09T11:20:38;0.93;;;0.60;;
54805;SDS011;62866;55.776;37.496;2022-09-09T11:23:12;0.32;;;0.32;;
54805;SDS011;62866;55.776;37.496;2022-09-09T11:25:42;1.15;;;0.60;;
54805;SDS011;62866;55.776;37.496;2022-09-09T11:33:37;1.45;;;0.50;;
54805;SDS011;62866;55.776;37.496;2022-09-09T11:39:09;0.50;;;0.50;;
54805;SDS011;62866;55.776;37.496;2022-09-09T11:41:50;0.35;;;0.35;;
54805;SDS011;62866;55.776;37.496;2022-09-09T11:44:20;1.60;;;0.40;;
54805;SDS011;62866;55.776;37.496;2022-09-09T11:46:53;0.60;;;0.60;;
54805;SDS011;62866;55.776;37.496;2022-09-09T11:50:06;0.73;;;0.43;;
54805;SDS011;62866;55.776;37.496;2022-09-09T11:52:12;1.00;;;0.80;;
54805;SDS011;62866;55.776;37.496;2022-09-09T11:55:07;0.52;;;0.40;;
54805;SDS011;62866;55.776;37.496;2022-09-09T11:57:36;1.05;;;0.40;;
54805;SDS011;62866;55.776;37.496;2022-09-09T12:00:03;0.40;;;0.40;;
54805;SDS011;62866;55.776;37.496;2022-09-09T12:02:29;0.52;;;0.40;;
54805;SDS011;62866;55.776;37.496;2022-09-09T12:05:07;0.50;;;0.40;;
54805;SDS011;62866;55.776;37.496;2022-09-09T12:07:38;1.75;;;0.85;;
54805;SDS011;62866;55.776;37.496;2022-09-09T12:12:34;0.85;;;0.60;;
54805;SDS011;62866;55.776;37.496;2022-09-09T12:28:16;0.85;;;0.68;;
54805;SDS011;62866;55.776;37.496;2022-09-09T12:33:36;0.90;;;0.60;;
54805;SDS011;62866;55.776;37.496;2022-09-09T12:36:10;0.90;;;0.50;;
54805;SDS011;62866;55.776;37.496;2022-09-09T12:38:39;2.55;;;0.70;;
54805;SDS011;62866;55.776;37.496;2022-09-09T12:41:20;1.42;;;0.50;;
54805;SDS011;62866;55.776;37.496;2022-09-09T12:43:47;0.70;;;0.70;;
54805;SDS011;62866;55.776;37.496;2022-09-09T12:46:26;0.80;;;0.63;;
54805;SDS011;62866;55.776;37.496;2022-09-09T12:51:47;1.85;;;0.50;;
54805;SDS011;62866;55.776;37.496;2022-09-09T12:54:14;0.60;;;0.50;;
54805;SDS011;62866;55.776;37.496;2022-09-09T12:56:44;2.47;;;0.40;;
54805;SDS011;62866;55.776;37.496;2022-09-09T12:59:25;1.70;;;0.55;;
54805;SDS011;62866;55.776;37.496;2022-09-09T13:01:59;0.57;;;0.50;;
54805;SDS011;62866;55.776;37.496;2022-09-09T13:04:25;0.65;;;0.40;;
54805;SDS011;62866;55.776;37.496;2022-09-09T13:06:51;2.65;;;0.55;;
54805;SDS011;62866;55.776;37.496;2022-09-09T13:09:17;0.77;;;0.40;;
54805;SDS011;62866;55.776;37.496;2022-09-09T13:11:49;0.70;;;0.50;;
54805;SDS011;62866;55.776;37.496;2022-09-09T13:14:30;0.40;;;0.40;;
54805;SDS011;62866;55.776;37.496;2022-09-09T13:17:00;0.45;;;0.40;;
54805;SDS011;62866;55.776;37.496;2022-09-09T13:19:29;0.50;;;0.50;;
54805;SDS011;62866;55.776;37.496;2022-09-09T13:22:00;0.75;;;0.50;;
54805;SDS011;62866;55.776;37.496;2022-09-09T13:25:26;1.17;;;0.47;;
54805;SDS011;62866;55.776;37.496;2022-09-09T13:27:55;1.60;;;0.60;;
54805;SDS011;62866;55.776;37.496;2022-09-09T13:30:29;0.90;;;0.50;;
54805;SDS011;62866;55.776;37.496;2022-09-09T13:33:04;13.82;;;1.13;;
54805;SDS011;62866;55.776;37.496;2022-09-09T13:35:30;1.13;;;0.50;;
54805;SDS011;62866;55.776;37.496;2022-09-09T13:37:57;2.00;;;1.00;;
54805;SDS011;62866;55.776;37.496;2022-09-09T13:40:25;1.25;;;1.00;;
54805;SDS011;62866;55.776;37.496;2022-09-09T13:42:52;0.70;;;0.60;;
54805;SDS011;62866;55.776;37.496;2022-09-09T13:45:22;3.67;;;1.10;;
54805;SDS011;62866;55.776;37.496;2022-09-09T13:47:51;2.35;;;0.82;;
54805;SDS011;62866;55.776;37.496;2022-09-09T13:52:52;3.63;;;2.40;;
54805;SDS011;62866;55.776;37.496;2022-09-09T13:55:19;2.95;;;1.60;;
54805;SDS011;62866;55.776;37.496;2022-09-09T13:57:54;1.58;;;1.38;;
54805;SDS011;62866;55.776;37.496;2022-09-09T14:00:22;3.58;;;1.48;;
54805;SDS011;62866;55.776;37.496;2022-09-09T14:02:49;2.45;;;1.10;;
54805;SDS011;62866;55.776;37.496;2022-09-09T14:05:15;1.83;;;0.88;;
54805;SDS011;62866;55.776;37.496;2022-09-09T14:07:42;1.83;;;0.93;;
54805;SDS011;62866;55.776;37.496;2022-09-09T14:10:09;1.15;;;0.90;;
54805;SDS011;62866;55.776;37.496;2022-09-09T14:12:35;1.40;;;0.80;;
54805;SDS011;62866;55.776;37.496;2022-09-09T14:15:04;1.10;;;0.80;;
54805;SDS011;62866;55.776;37.496;2022-09-09T14:17:30;3.63;;;0.70;;
54805;SDS011;62866;55.776;37.496;2022-09-09T14:19:56;1.67;;;0.60;;
54805;SDS011;62866;55.776;37.496;2022-09-09T14:22:22;0.95;;;0.80;;
54805;SDS011;62866;55.776;37.496;2022-09-09T14:24:48;2.08;;;0.88;;
54805;SDS011;62866;55.776;37.496;2022-09-09T14:27:14;3.10;;;0.88;;
54805;SDS011;62866;55.776;37.496;2022-09-09T14:29:40;1.38;;;0.63;;
54805;SDS011;62866;55.776;37.496;2022-09-09T14:32:05;1.35;;;0.98;;
54805;SDS011;62866;55.776;37.496;2022-09-09T14:34:31;0.95;;;0.65;;
54805;SDS011;62866;55.776;37.496;2022-09-09T14:37:00;1.15;;;0.73;;
54805;SDS011;62866;55.776;37.496;2022-09-09T14:39:25;1.75;;;1.10;;
54805;SDS011;62866;55.776;37.496;2022-09-09T14:41:51;1.38;;;0.90;;
54805;SDS011;62866;55.776;37.496;2022-09-09T14:44:16;1.13;;;0.52;;
54805;SDS011;62866;55.776;37.496;2022-09-09T14:46:42;2.33;;;0.90;;
54805;SDS011;62866;55.776;37.496;2022-09-09T14:49:08;2.17;;;0.70;;
54805;SDS011;62866;55.776;37.496;2022-09-09T14:51:35;1.98;;;0.93;;
54805;SDS011;62866;55.776;37.496;2022-09-09T14:54:00;0.80;;;0.60;;
54805;SDS011;62866;55.776;37.496;2022-09-09T14:56:28;1.13;;;0.75;;
54805;SDS011;62866;55.776;37.496;2022-09-09T14:58:55;1.20;;;0.75;;
54805;SDS011;62866;55.776;37.496;2022-09-09T15:01:22;2.72;;;0.80;;
54805;SDS011;62866;55.776;37.496;2022-09-09T15:03:53;1.23;;;0.70;;
54805;SDS011;62866;55.776;37.496;2022-09-09T15:06:20;2.03;;;1.35;;
54805;SDS011;62866;55.776;37.496;2022-09-09T15:08:49;1.17;;;0.80;;
54805;SDS011;62866;55.776;37.496;2022-09-09T15:11:15;2.10;;;1.05;;
54805;SDS011;62866;55.776;37.496;2022-09-09T15:13:41;2.80;;;0.85;;
54805;SDS011;62866;55.776;37.496;2022-09-09T15:16:17;0.73;;;0.70;;
54805;SDS011;62866;55.776;37.496;2022-09-09T15:18:44;2.22;;;0.90;;
54805;SDS011;62866;55.776;37.496;2022-09-09T15:21:14;1.75;;;1.02;;
54805;SDS011;62866;55.776;37.496;2022-09-09T15:23:42;4.65;;;1.35;;
54805;SDS011;62866;55.776;37.496;2022-09-09T15:26:08;2.70;;;1.30;;
54805;SDS011;62866;55.776;37.496;2022-09-09T15:28:36;7.82;;;2.75;;
54805;SDS011;62866;55.776;37.496;2022-09-09T15:31:19;4.15;;;2.35;;
54805;SDS011;62866;55.776;37.496;2022-09-09T15:33:49;6.63;;;1.65;;
54805;SDS011;62866;55.776;37.496;2022-09-09T15:36:17;3.50;;;1.40;;
54805;SDS011;62866;55.776;37.496;2022-09-09T15:38:47;3.72;;;1.40;;
54805;SDS011;62866;55.776;37.496;2022-09-09T15:41:13;3.50;;;2.25;;
54805;SDS011;62866;55.776;37.496;2022-09-09T15:43:50;4.30;;;1.38;;
54805;SDS011;62866;55.776;37.496;2022-09-09T15:48:43;4.05;;;1.80;;
54805;SDS011;62866;55.776;37.496;2022-09-09T15:51:10;7.13;;;1.70;;
54805;SDS011;62866;55.776;37.496;2022-09-09T15:53:36;5.22;;;2.67;;
54805;SDS011;62866;55.776;37.496;2022-09-09T15:56:07;2.50;;;1.63;;
54805;SDS011;62866;55.776;37.496;2022-09-09T15:58:34;7.05;;;2.25;;
54805;SDS011;62866;55.776;37.496;2022-09-09T16:03:33;1.83;;;1.30;;
54805;SDS011;62866;55.776;37.496;2022-09-09T16:05:59;2.95;;;1.60;;
54805;SDS011;62866;55.776;37.496;2022-09-09T16:08:31;2.47;;;1.13;;
54805;SDS011;62866;55.776;37.496;2022-09-09T16:11:03;2.80;;;1.73;;
54805;SDS011;62866;55.776;37.496;2022-09-09T16:13:32;5.78;;;1.80;;
54805;SDS011;62866;55.776;37.496;2022-09-09T16:15:58;4.13;;;1.40;;
54805;SDS011;62866;55.776;37.496;2022-09-09T16:18:24;2.25;;;1.30;;
54805;SDS011;62866;55.776;37.496;2022-09-09T16:20:53;4.30;;;1.20;;
54805;SDS011;62866;55.776;37.496;2022-09-09T16:23:19;4.28;;;2.20;;
54805;SDS011;62866;55.776;37.496;2022-09-09T16:25:52;1.70;;;1.20;;
54805;SDS011;62866;55.776;37.496;2022-09-09T16:30:45;1.85;;;1.05;;
54805;SDS011;62866;55.776;37.496;2022-09-09T16:33:10;5.93;;;1.40;;
54805;SDS011;62866;55.776;37.496;2022-09-09T16:35:36;6.75;;;2.40;;
54805;SDS011;62866;55.776;37.496;2022-09-09T16:38:04;2.25;;;1.35;;
54805;SDS011;62866;55.776;37.496;2022-09-09T16:40:33;3.20;;;1.50;;
54805;SDS011;62866;55.776;37.496;2022-09-09T16:43:04;4.38;;;1.63;;
54805;SDS011;62866;55.776;37.496;2022-09-09T16:45:40;3.20;;;1.40;;
54805;SDS011;62866;55.776;37.496;2022-09-09T16:48:06;5.70;;;1.60;;
54805;SDS011;62866;55.776;37.496;2022-09-09T16:50:32;5.60;;;1.63;;
54805;SDS011;62866;55.776;37.496;2022-09-09T16:52:57;3.15;;;1.83;;
54805;SDS011;62866;55.776;37.496;2022-09-09T16:55:23;2.72;;;1.30;;
54805;SDS011;62866;55.776;37.496;2022-09-09T16:57:49;3.63;;;1.67;;
54805;SDS011;62866;55.776;37.496;2022-09-09T17:00:14;2.05;;;1.30;;
54805;SDS011;62866;55.776;37.496;2022-09-09T17:02:41;3.08;;;1.60;;
54805;SDS011;62866;55.776;37.496;2022-09-09T17:05:08;4.72;;;1.60;;
54805;SDS011;62866;55.776;37.496;2022-09-09T17:07:34;2.88;;;1.40;;
54805;SDS011;62866;55.776;37.496;2022-09-09T17:10:00;3.28;;;1.25;;
54805;SDS011;62866;55.776;37.496;2022-09-09T17:12:26;4.65;;;1.55;;
54805;SDS011;62866;55.776;37.496;2022-09-09T17:14:52;3.72;;;1.27;;
54805;SDS011;62866;55.776;37.496;2022-09-09T17:17:18;2.53;;;1.58;;
54805;SDS011;62866;55.776;37.496;2022-09-09T17:19:43;4.32;;;1.83;;
54805;SDS011;62866;55.776;37.496;2022-09-09T17:22:09;4.68;;;1.65;;
54805;SDS011;62866;55.776;37.496;2022-09-09T17:24:34;3.28;;;1.60;;